sensor_id;sensor_type;location;lat;lon;timestamp;P1;P2;P0
54553;PMS5003;40450;55.848;-3.572;2023-05-10T00:00:43;4;2;
54553;PMS5003;40450;55.848;-3.572;2023-05-10T00:03:14;6;4;
54553;PMS5003;40450;55.848;-3.572;2023-05-10T00:05:44;2;2;
54553;PMS5003;40450;55.848;-3.572;2023-05-10T00:08:15;6;5;
54553;PMS5003;40450;55.848;-3.572;2023-05-10T00:10:45;5;3;
54553;PMS5003;40450;55.848;-3.572;2023-05-10T00:13:15;6;6;
54553;PMS5003;40450;55.848;-3.572;2023-05-10T00:15:46;4;4;
54553;PMS5003;40450;55.848;-3.572;2023-05-10T00:18:16;5;5;
54553;PMS5003;40450;55.848;-3.572;2023-05-10T00:20:46;5;4;
54553;PMS5003;40450;55.848;-3.572;2023-05-10T00:23:17;3;2;
54553;PMS5003;40450;55.848;-3.572;2023-05-10T00:25:47;5;3;
54553;PMS5003;40450;55.848;-3.572;2023-05-10T00:28:17;2;2;
54553;PMS5003;40450;55.848;-3.572;2023-05-10T00:30:48;3;3;
54553;PMS5003;40450;55.848;-3.572;2023-05-10T00:33:18;4;4;
54553;PMS5003;40450;55.848;-3.572;2023-05-10T00:35:49;4;4;
54553;PMS5003;40450;55.848;-3.572;2023-05-10T00:38:19;4;3;
54553;PMS5003;40450;55.848;-3.572;2023-05-10T00:40:49;4;4;
54553;PMS5003;40450;55.848;-3.572;2023-05-10T00:43:19;3;3;
54553;PMS5003;40450;55.848;-3.572;2023-05-10T00:45:50;2;2;
54553;PMS5003;40450;55.848;-3.572;2023-05-10T00:48:20;4;3;
54553;PMS5003;40450;55.848;-3.572;2023-05-10T00:50:51;4;3;
54553;PMS5003;40450;55.848;-3.572;2023-05-10T00:53:21;3;3;
54553;PMS5003;40450;55.848;-3.572;2023-05-10T00:55:51;4;3;
54553;PMS5003;40450;55.848;-3.572;2023-05-10T00:58:22;4;4;
54553;PMS5003;40450;55.848;-3.572;2023-05-10T01:00:52;3;3;
54553;PMS5003;40450;55.848;-3.572;2023-05-10T01:03:22;3;3;
54553;PMS5003;40450;55.848;-3.572;2023-05-10T01:05:53;2;2;
54553;PMS5003;40450;55.848;-3.572;2023-05-10T01:08:23;4;4;
54553;PMS5003;40450;55.848;-3.572;2023-05-10T01:10:54;2;2;
54553;PMS5003;40450;55.848;-3.572;2023-05-10T01:13:28;3;3;
54553;PMS5003;40450;55.848;-3.572;2023-05-10T01:15:54;7;3;
54553;PMS5003;40450;55.848;-3.572;2023-05-10T01:18:25;5;3;
54553;PMS5003;40450;55.848;-3.572;2023-05-10T01:20:58;3;3;
54553;PMS5003;40450;55.848;-3.572;2023-05-10T01:23:32;4;4;
54553;PMS5003;40450;55.848;-3.572;2023-05-10T01:28:32;5;4;
54553;PMS5003;40450;55.848;-3.572;2023-05-10T01:33:27;4;4;
54553;PMS5003;40450;55.848;-3.572;2023-05-10T01:35:59;4;4;
54553;PMS5003;40450;55.848;-3.572;2023-05-10T01:38:29;4;4;
54553;PMS5003;40450;55.848;-3.572;2023-05-10T01:41:01;3;2;
54553;PMS5003;40450;55.848;-3.572;2023-05-10T01:43:31;4;3;
54553;PMS5003;40450;55.848;-3.572;2023-05-10T01:46:00;2;2;
54553;PMS5003;40450;55.848;-3.572;2023-05-10T01:48:29;2;2;
54553;PMS5003;40450;55.848;-3.572;2023-05-10T01:51:00;3;3;
54553;PMS5003;40450;55.848;-3.572;2023-05-10T01:53:30;3;3;
54553;PMS5003;40450;55.848;-3.572;2023-05-10T01:56:00;3;1;
54553;PMS5003;40450;55.848;-3.572;2023-05-10T01:58:31;5;3;
54553;PMS5003;40450;55.848;-3.572;2023-05-10T02:01:01;1;1;
54553;PMS5003;40450;55.848;-3.572;2023-05-10T02:03:32;3;3;
54553;PMS5003;40450;55.848;-3.572;2023-05-10T02:06:02;3;3;
54553;PMS5003;40450;55.848;-3.572;2023-05-10T02:08:32;4;3;
54553;PMS5003;40450;55.848;-3.572;2023-05-10T02:11:03;3;3;
54553;PMS5003;40450;55.848;-3.572;2023-05-10T02:13:33;3;3;
54553;PMS5003;40450;55.848;-3.572;2023-05-10T02:16:04;8;4;
54553;PMS5003;40450;55.848;-3.572;2023-05-10T02:18:34;3;3;
54553;PMS5003;40450;55.848;-3.572;2023-05-10T02:21:04;2;2;
54553;PMS5003;40450;55.848;-3.572;2023-05-10T02:23:35;3;3;
54553;PMS5003;40450;55.848;-3.572;2023-05-10T02:26:05;2;2;
54553;PMS5003;40450;55.848;-3.572;2023-05-10T02:28:35;2;2;
54553;PMS5003;40450;55.848;-3.572;2023-05-10T02:31:06;4;4;
54553;PMS5003;40450;55.848;-3.572;2023-05-10T02:33:36;1;1;
54553;PMS5003;40450;55.848;-3.572;2023-05-10T02:36:07;1;1;
54553;PMS5003;40450;55.848;-3.572;2023-05-10T02:38:37;3;3;
54553;PMS5003;40450;55.848;-3.572;2023-05-10T02:41:07;4;4;
54553;PMS5003;40450;55.848;-3.572;2023-05-10T02:43:38;2;2;
54553;PMS5003;40450;55.848;-3.572;2023-05-10T02:46:08;7;5;
54553;PMS5003;40450;55.848;-3.572;2023-05-10T02:48:39;5;4;
54553;PMS5003;40450;55.848;-3.572;2023-05-10T02:51:09;4;4;
54553;PMS5003;40450;55.848;-3.572;2023-05-10T02:53:41;3;2;
54553;PMS5003;40450;55.848;-3.572;2023-05-10T02:56:11;6;3;
54553;PMS5003;40450;55.848;-3.572;2023-05-10T02:58:40;1;1;
54553;PMS5003;40450;55.848;-3.572;2023-05-10T03:01:10;2;2;
54553;PMS5003;40450;55.848;-3.572;2023-05-10T03:03:41;4;4;
54553;PMS5003;40450;55.848;-3.572;2023-05-10T03:06:11;5;2;
54553;PMS5003;40450;55.848;-3.572;2023-05-10T03:08:42;3;3;
54553;PMS5003;40450;55.848;-3.572;2023-05-10T03:11:16;3;3;
54553;PMS5003;40450;55.848;-3.572;2023-05-10T03:13:44;4;4;
54553;PMS5003;40450;55.848;-3.572;2023-05-10T03:16:14;4;4;
54553;PMS5003;40450;55.848;-3.572;2023-05-10T03:18:44;3;3;
54553;PMS5003;40450;55.848;-3.572;2023-05-10T03:21:13;3;3;
54553;PMS5003;40450;55.848;-3.572;2023-05-10T03:23:46;4;4;
54553;PMS5003;40450;55.848;-3.572;2023-05-10T03:26:15;2;2;
54553;PMS5003;40450;55.848;-3.572;2023-05-10T03:28:44;4;4;
54553;PMS5003;40450;55.848;-3.572;2023-05-10T03:31:15;3;3;
54553;PMS5003;40450;55.848;-3.572;2023-05-10T03:33:46;4;3;
54553;PMS5003;40450;55.848;-3.572;2023-05-10T03:36:16;5;5;
54553;PMS5003;40450;55.848;-3.572;2023-05-10T03:38:46;2;2;
54553;PMS5003;40450;55.848;-3.572;2023-05-10T03:41:16;4;4;
54553;PMS5003;40450;55.848;-3.572;2023-05-10T03:43:46;3;3;
54553;PMS5003;40450;55.848;-3.572;2023-05-10T03:46:17;1;1;
54553;PMS5003;40450;55.848;-3.572;2023-05-10T03:48:47;3;3;
54553;PMS5003;40450;55.848;-3.572;2023-05-10T03:51:18;4;2;
54553;PMS5003;40450;55.848;-3.572;2023-05-10T03:53:48;5;5;
54553;PMS5003;40450;55.848;-3.572;2023-05-10T03:56:18;4;4;
54553;PMS5003;40450;55.848;-3.572;2023-05-10T03:58:49;5;4;
54553;PMS5003;40450;55.848;-3.572;2023-05-10T04:01:19;3;3;
54553;PMS5003;40450;55.848;-3.572;2023-05-10T04:03:50;2;2;
54553;PMS5003;40450;55.848;-3.572;2023-05-10T04:06:20;5;3;
54553;PMS5003;40450;55.848;-3.572;2023-05-10T04:08:50;4;4;
54553;PMS5003;40450;55.848;-3.572;2023-05-10T04:11:20;2;2;
54553;PMS5003;40450;55.848;-3.572;2023-05-10T04:13:51;2;2;
54553;PMS5003;40450;55.848;-3.572;2023-05-10T04:16:21;3;1;
54553;PMS5003;40450;55.848;-3.572;2023-05-10T04:18:51;3;3;
54553;PMS5003;40450;55.848;-3.572;2023-05-10T04:21:22;4;4;
54553;PMS5003;40450;55.848;-3.572;2023-05-10T04:23:52;2;2;
54553;PMS5003;40450;55.848;-3.572;2023-05-10T04:26:23;5;3;
54553;PMS5003;40450;55.848;-3.572;2023-05-10T04:28:53;5;3;
54553;PMS5003;40450;55.848;-3.572;2023-05-10T04:31:23;7;3;
54553;PMS5003;40450;55.848;-3.572;2023-05-10T04:33:54;3;3;
54553;PMS5003;40450;55.848;-3.572;2023-05-10T04:36:24;4;2;
54553;PMS5003;40450;55.848;-3.572;2023-05-10T04:38:54;3;3;
54553;PMS5003;40450;55.848;-3.572;2023-05-10T04:41:25;4;4;
54553;PMS5003;40450;55.848;-3.572;2023-05-10T04:43:55;3;3;
54553;PMS5003;40450;55.848;-3.572;2023-05-10T04:46:26;4;3;
54553;PMS5003;40450;55.848;-3.572;2023-05-10T04:48:56;5;5;
54553;PMS5003;40450;55.848;-3.572;2023-05-10T04:51:26;3;3;
54553;PMS5003;40450;55.848;-3.572;2023-05-10T04:53:57;3;3;
54553;PMS5003;40450;55.848;-3.572;2023-05-10T04:56:27;1;1;
54553;PMS5003;40450;55.848;-3.572;2023-05-10T04:58:58;3;3;
54553;PMS5003;40450;55.848;-3.572;2023-05-10T05:01:28;1;1;
54553;PMS5003;40450;55.848;-3.572;2023-05-10T05:03:58;3;3;
54553;PMS5003;40450;55.848;-3.572;2023-05-10T05:06:29;2;2;
54553;PMS5003;40450;55.848;-3.572;2023-05-10T05:08:59;5;4;
54553;PMS5003;40450;55.848;-3.572;2023-05-10T05:11:29;4;4;
54553;PMS5003;40450;55.848;-3.572;2023-05-10T05:14:00;5;3;
54553;PMS5003;40450;55.848;-3.572;2023-05-10T05:16:30;2;2;
54553;PMS5003;40450;55.848;-3.572;2023-05-10T05:19:01;2;2;
54553;PMS5003;40450;55.848;-3.572;2023-05-10T05:21:31;5;4;
54553;PMS5003;40450;55.848;-3.572;2023-05-10T05:24:01;5;3;
54553;PMS5003;40450;55.848;-3.572;2023-05-10T05:26:32;3;3;
54553;PMS5003;40450;55.848;-3.572;2023-05-10T05:29:02;4;4;
54553;PMS5003;40450;55.848;-3.572;2023-05-10T05:31:33;4;4;
54553;PMS5003;40450;55.848;-3.572;2023-05-10T05:34:03;5;3;
54553;PMS5003;40450;55.848;-3.572;2023-05-10T05:36:35;3;3;
54553;PMS5003;40450;55.848;-3.572;2023-05-10T05:39:04;4;4;
54553;PMS5003;40450;55.848;-3.572;2023-05-10T05:41:34;3;3;
54553;PMS5003;40450;55.848;-3.572;2023-05-10T05:44:05;3;3;
54553;PMS5003;40450;55.848;-3.572;2023-05-10T05:46:35;4;4;
54553;PMS5003;40450;55.848;-3.572;2023-05-10T05:49:05;4;4;
54553;PMS5003;40450;55.848;-3.572;2023-05-10T05:51:36;4;3;
54553;PMS5003;40450;55.848;-3.572;2023-05-10T05:54:06;5;4;
54553;PMS5003;40450;55.848;-3.572;2023-05-10T05:56:37;6;4;
54553;PMS5003;40450;55.848;-3.572;2023-05-10T05:59:07;3;3;
54553;PMS5003;40450;55.848;-3.572;2023-05-10T06:01:37;4;3;
54553;PMS5003;40450;55.848;-3.572;2023-05-10T06:04:07;6;4;
54553;PMS5003;40450;55.848;-3.572;2023-05-10T06:06:38;3;3;
54553;PMS5003;40450;55.848;-3.572;2023-05-10T06:09:08;4;4;
54553;PMS5003;40450;55.848;-3.572;2023-05-10T06:11:38;5;5;
54553;PMS5003;40450;55.848;-3.572;2023-05-10T06:14:09;5;3;
54553;PMS5003;40450;55.848;-3.572;2023-05-10T06:16:39;4;4;
54553;PMS5003;40450;55.848;-3.572;2023-05-10T06:19:09;4;4;
54553;PMS5003;40450;55.848;-3.572;2023-05-10T06:21:40;3;3;
54553;PMS5003;40450;55.848;-3.572;2023-05-10T06:24:10;5;5;
54553;PMS5003;40450;55.848;-3.572;2023-05-10T06:26:41;2;2;
54553;PMS5003;40450;55.848;-3.572;2023-05-10T06:29:11;5;5;
54553;PMS5003;40450;55.848;-3.572;2023-05-10T06:31:41;4;4;
54553;PMS5003;40450;55.848;-3.572;2023-05-10T06:34:12;5;4;
54553;PMS5003;40450;55.848;-3.572;2023-05-10T06:36:42;3;3;
54553;PMS5003;40450;55.848;-3.572;2023-05-10T06:39:12;5;4;
54553;PMS5003;40450;55.848;-3.572;2023-05-10T06:41:43;4;4;
54553;PMS5003;40450;55.848;-3.572;2023-05-10T06:44:13;4;4;
54553;PMS5003;40450;55.848;-3.572;2023-05-10T06:46:43;5;5;
54553;PMS5003;40450;55.848;-3.572;2023-05-10T06:49:14;4;4;
54553;PMS5003;40450;55.848;-3.572;2023-05-10T06:51:44;4;4;
54553;PMS5003;40450;55.848;-3.572;2023-05-10T06:54:15;4;4;
54553;PMS5003;40450;55.848;-3.572;2023-05-10T06:56:45;6;4;
54553;PMS5003;40450;55.848;-3.572;2023-05-10T06:59:15;5;5;
54553;PMS5003;40450;55.848;-3.572;2023-05-10T07:01:46;4;4;
54553;PMS5003;40450;55.848;-3.572;2023-05-10T07:04:16;5;5;
54553;PMS5003;40450;55.848;-3.572;2023-05-10T07:06:46;4;4;
54553;PMS5003;40450;55.848;-3.572;2023-05-10T07:09:17;4;4;
54553;PMS5003;40450;55.848;-3.572;2023-05-10T07:11:47;6;5;
54553;PMS5003;40450;55.848;-3.572;2023-05-10T07:14:17;4;4;
54553;PMS5003;40450;55.848;-3.572;2023-05-10T07:16:48;5;5;
54553;PMS5003;40450;55.848;-3.572;2023-05-10T07:19:18;5;5;
54553;PMS5003;40450;55.848;-3.572;2023-05-10T07:21:48;6;6;
54553;PMS5003;40450;55.848;-3.572;2023-05-10T07:24:18;5;4;
54553;PMS5003;40450;55.848;-3.572;2023-05-10T07:26:49;5;3;
54553;PMS5003;40450;55.848;-3.572;2023-05-10T07:29:19;4;4;
54553;PMS5003;40450;55.848;-3.572;2023-05-10T07:31:50;5;5;
54553;PMS5003;40450;55.848;-3.572;2023-05-10T07:34:20;3;3;
54553;PMS5003;40450;55.848;-3.572;2023-05-10T07:36:50;2;2;
54553;PMS5003;40450;55.848;-3.572;2023-05-10T07:39:21;6;5;
54553;PMS5003;40450;55.848;-3.572;2023-05-10T07:41:51;4;3;
54553;PMS5003;40450;55.848;-3.572;2023-05-10T07:44:22;4;4;
54553;PMS5003;40450;55.848;-3.572;2023-05-10T07:46:52;5;5;
54553;PMS5003;40450;55.848;-3.572;2023-05-10T07:49:22;7;7;
54553;PMS5003;40450;55.848;-3.572;2023-05-10T07:51:53;2;2;
54553;PMS5003;40450;55.848;-3.572;2023-05-10T07:54:23;3;3;
54553;PMS5003;40450;55.848;-3.572;2023-05-10T07:56:53;5;3;
54553;PMS5003;40450;55.848;-3.572;2023-05-10T07:59:24;4;4;
54553;PMS5003;40450;55.848;-3.572;2023-05-10T08:01:54;4;4;
54553;PMS5003;40450;55.848;-3.572;2023-05-10T08:04:25;4;4;
54553;PMS5003;40450;55.848;-3.572;2023-05-10T08:06:55;3;2;
54553;PMS5003;40450;55.848;-3.572;2023-05-10T08:09:25;2;2;
54553;PMS5003;40450;55.848;-3.572;2023-05-10T08:11:56;5;5;
54553;PMS5003;40450;55.848;-3.572;2023-05-10T08:14:27;6;4;
54553;PMS5003;40450;55.848;-3.572;2023-05-10T08:16:56;2;2;
54553;PMS5003;40450;55.848;-3.572;2023-05-10T08:19:26;2;2;
54553;PMS5003;40450;55.848;-3.572;2023-05-10T08:21:56;5;5;
54553;PMS5003;40450;55.848;-3.572;2023-05-10T08:24:27;9;8;
54553;PMS5003;40450;55.848;-3.572;2023-05-10T08:26:57;9;9;
54553;PMS5003;40450;55.848;-3.572;2023-05-10T08:29:27;12;11;
54553;PMS5003;40450;55.848;-3.572;2023-05-10T08:31:57;9;9;
54553;PMS5003;40450;55.848;-3.572;2023-05-10T08:34:28;5;5;
54553;PMS5003;40450;55.848;-3.572;2023-05-10T08:36:58;4;3;
54553;PMS5003;40450;55.848;-3.572;2023-05-10T08:39:29;2;2;
54553;PMS5003;40450;55.848;-3.572;2023-05-10T08:42:00;2;2;
54553;PMS5003;40450;55.848;-3.572;2023-05-10T08:44:29;1;1;
54553;PMS5003;40450;55.848;-3.572;2023-05-10T08:47:00;0;0;
54553;PMS5003;40450;55.848;-3.572;2023-05-10T08:49:31;1;1;
54553;PMS5003;40450;55.848;-3.572;2023-05-10T08:52:02;2;2;
54553;PMS5003;40450;55.848;-3.572;2023-05-10T08:54:31;2;1;
54553;PMS5003;40450;55.848;-3.572;2023-05-10T08:57:01;0;0;
54553;PMS5003;40450;55.848;-3.572;2023-05-10T08:59:32;1;1;
54553;PMS5003;40450;55.848;-3.572;2023-05-10T09:02:02;2;1;
54553;PMS5003;40450;55.848;-3.572;2023-05-10T09:04:32;1;0;
54553;PMS5003;40450;55.848;-3.572;2023-05-10T09:07:04;0;0;
54553;PMS5003;40450;55.848;-3.572;2023-05-10T09:09:33;1;1;
54553;PMS5003;40450;55.848;-3.572;2023-05-10T09:12:03;2;2;
54553;PMS5003;40450;55.848;-3.572;2023-05-10T09:14:33;0;0;
54553;PMS5003;40450;55.848;-3.572;2023-05-10T09:17:04;1;1;
54553;PMS5003;40450;55.848;-3.572;2023-05-10T09:19:34;1;1;
54553;PMS5003;40450;55.848;-3.572;2023-05-10T09:22:04;0;0;
54553;PMS5003;40450;55.848;-3.572;2023-05-10T09:24:35;1;1;
54553;PMS5003;40450;55.848;-3.572;2023-05-10T09:27:05;2;1;
54553;PMS5003;40450;55.848;-3.572;2023-05-10T09:29:39;0;0;
54553;PMS5003;40450;55.848;-3.572;2023-05-10T09:32:06;0;0;
54553;PMS5003;40450;55.848;-3.572;2023-05-10T09:34:36;0;0;
54553;PMS5003;40450;55.848;-3.572;2023-05-10T09:37:06;0;0;
54553;PMS5003;40450;55.848;-3.572;2023-05-10T09:39:37;0;0;
54553;PMS5003;40450;55.848;-3.572;2023-05-10T09:42:08;0;0;
54553;PMS5003;40450;55.848;-3.572;2023-05-10T09:44:37;0;0;
54553;PMS5003;40450;55.848;-3.572;2023-05-10T09:47:08;0;0;
54553;PMS5003;40450;55.848;-3.572;2023-05-10T09:49:38;0;0;
54553;PMS5003;40450;55.848;-3.572;2023-05-10T09:52:09;0;0;
54553;PMS5003;40450;55.848;-3.572;2023-05-10T09:54:42;1;1;
54553;PMS5003;40450;55.848;-3.572;2023-05-10T09:57:10;0;0;
54553;PMS5003;40450;55.848;-3.572;2023-05-10T09:59:42;1;1;
54553;PMS5003;40450;55.848;-3.572;2023-05-10T10:02:10;0;0;
54553;PMS5003;40450;55.848;-3.572;2023-05-10T10:04:40;0;0;
54553;PMS5003;40450;55.848;-3.572;2023-05-10T10:07:10;0;0;
54553;PMS5003;40450;55.848;-3.572;2023-05-10T10:09:41;0;0;
54553;PMS5003;40450;55.848;-3.572;2023-05-10T10:12:11;0;0;
54553;PMS5003;40450;55.848;-3.572;2023-05-10T10:14:41;0;0;
54553;PMS5003;40450;55.848;-3.572;2023-05-10T10:17:12;0;0;
54553;PMS5003;40450;55.848;-3.572;2023-05-10T10:19:42;0;0;
54553;PMS5003;40450;55.848;-3.572;2023-05-10T10:22:12;0;0;
54553;PMS5003;40450;55.848;-3.572;2023-05-10T10:24:43;0;0;
54553;PMS5003;40450;55.848;-3.572;2023-05-10T10:27:16;0;0;
54553;PMS5003;40450;55.848;-3.572;2023-05-10T10:29:47;0;0;
54553;PMS5003;40450;55.848;-3.572;2023-05-10T10:32:18;0;0;
54553;PMS5003;40450;55.848;-3.572;2023-05-10T10:34:44;0;0;
54553;PMS5003;40450;55.848;-3.572;2023-05-10T10:37:14;1;0;
54553;PMS5003;40450;55.848;-3.572;2023-05-10T10:39:45;0;0;
54553;PMS5003;40450;55.848;-3.572;2023-05-10T10:42:15;0;0;
54553;PMS5003;40450;55.848;-3.572;2023-05-10T10:44:45;0;0;
54553;PMS5003;40450;55.848;-3.572;2023-05-10T10:49:48;0;0;
54553;PMS5003;40450;55.848;-3.572;2023-05-10T10:52:21;0;0;
54553;PMS5003;40450;55.848;-3.572;2023-05-10T10:54:49;1;0;
54553;PMS5003;40450;55.848;-3.572;2023-05-10T10:57:18;1;1;
54553;PMS5003;40450;55.848;-3.572;2023-05-10T10:59:47;1;1;
54553;PMS5003;40450;55.848;-3.572;2023-05-10T11:04:48;2;2;
54553;PMS5003;40450;55.848;-3.572;2023-05-10T11:07:18;3;1;
54553;PMS5003;40450;55.848;-3.572;2023-05-10T11:09:49;0;0;
54553;PMS5003;40450;55.848;-3.572;2023-05-10T11:12:19;0;0;
54553;PMS5003;40450;55.848;-3.572;2023-05-10T11:14:50;0;0;
54553;PMS5003;40450;55.848;-3.572;2023-05-10T11:17:23;0;0;
54553;PMS5003;40450;55.848;-3.572;2023-05-10T11:22:20;0;0;
54553;PMS5003;40450;55.848;-3.572;2023-05-10T11:27:21;0;0;
54553;PMS5003;40450;55.848;-3.572;2023-05-10T11:29:51;0;0;
54553;PMS5003;40450;55.848;-3.572;2023-05-10T11:32:22;1;1;
54553;PMS5003;40450;55.848;-3.572;2023-05-10T11:34:52;0;0;
54553;PMS5003;40450;55.848;-3.572;2023-05-10T11:37:22;0;0;
54553;PMS5003;40450;55.848;-3.572;2023-05-10T11:39:54;0;0;
54553;PMS5003;40450;55.848;-3.572;2023-05-10T11:42:23;0;0;
54553;PMS5003;40450;55.848;-3.572;2023-05-10T11:44:53;0;0;
54553;PMS5003;40450;55.848;-3.572;2023-05-10T11:47:29;0;0;
54553;PMS5003;40450;55.848;-3.572;2023-05-10T11:49:54;0;0;
54553;PMS5003;40450;55.848;-3.572;2023-05-10T11:52:24;0;0;
54553;PMS5003;40450;55.848;-3.572;2023-05-10T11:54:55;0;0;
54553;PMS5003;40450;55.848;-3.572;2023-05-10T11:57:26;0;0;
54553;PMS5003;40450;55.848;-3.572;2023-05-10T11:59:56;0;0;
54553;PMS5003;40450;55.848;-3.572;2023-05-10T12:02:26;0;0;
54553;PMS5003;40450;55.848;-3.572;2023-05-10T12:04:56;1;1;
54553;PMS5003;40450;55.848;-3.572;2023-05-10T12:07:26;0;0;
54553;PMS5003;40450;55.848;-3.572;2023-05-10T12:12:27;0;0;
54553;PMS5003;40450;55.848;-3.572;2023-05-10T12:14:57;0;0;
54553;PMS5003;40450;55.848;-3.572;2023-05-10T12:17:29;1;1;
54553;PMS5003;40450;55.848;-3.572;2023-05-10T12:19:58;1;1;
54553;PMS5003;40450;55.848;-3.572;2023-05-10T12:22:28;0;0;
54553;PMS5003;40450;55.848;-3.572;2023-05-10T12:24:59;0;0;
54553;PMS5003;40450;55.848;-3.572;2023-05-10T12:27:31;0;0;
54553;PMS5003;40450;55.848;-3.572;2023-05-10T12:29:59;0;0;
54553;PMS5003;40450;55.848;-3.572;2023-05-10T12:35:00;1;1;
54553;PMS5003;40450;55.848;-3.572;2023-05-10T12:37:30;1;1;
54553;PMS5003;40450;55.848;-3.572;2023-05-10T12:40:01;0;0;
54553;PMS5003;40450;55.848;-3.572;2023-05-10T12:42:31;0;0;
54553;PMS5003;40450;55.848;-3.572;2023-05-10T12:45:02;0;0;
54553;PMS5003;40450;55.848;-3.572;2023-05-10T12:47:32;0;0;
54553;PMS5003;40450;55.848;-3.572;2023-05-10T12:50:03;1;1;
54553;PMS5003;40450;55.848;-3.572;2023-05-10T12:52:33;0;0;
54553;PMS5003;40450;55.848;-3.572;2023-05-10T12:55:03;0;0;
54553;PMS5003;40450;55.848;-3.572;2023-05-10T12:57:33;0;0;
54553;PMS5003;40450;55.848;-3.572;2023-05-10T13:00:04;1;1;
54553;PMS5003;40450;55.848;-3.572;2023-05-10T13:02:34;1;1;
54553;PMS5003;40450;55.848;-3.572;2023-05-10T13:05:05;1;1;
54553;PMS5003;40450;55.848;-3.572;2023-05-10T13:07:35;1;1;
54553;PMS5003;40450;55.848;-3.572;2023-05-10T13:10:06;1;1;
54553;PMS5003;40450;55.848;-3.572;2023-05-10T13:12:35;2;1;
54553;PMS5003;40450;55.848;-3.572;2023-05-10T13:15:06;2;2;
54553;PMS5003;40450;55.848;-3.572;2023-05-10T13:17:36;0;0;
54553;PMS5003;40450;55.848;-3.572;2023-05-10T13:20:07;1;1;
54553;PMS5003;40450;55.848;-3.572;2023-05-10T13:22:37;1;1;
54553;PMS5003;40450;55.848;-3.572;2023-05-10T13:25:08;1;1;
54553;PMS5003;40450;55.848;-3.572;2023-05-10T13:27:38;1;1;
54553;PMS5003;40450;55.848;-3.572;2023-05-10T13:30:08;0;0;
54553;PMS5003;40450;55.848;-3.572;2023-05-10T13:32:38;1;1;
54553;PMS5003;40450;55.848;-3.572;2023-05-10T13:35:09;3;2;
54553;PMS5003;40450;55.848;-3.572;2023-05-10T13:37:39;2;2;
54553;PMS5003;40450;55.848;-3.572;2023-05-10T13:40:09;3;3;
54553;PMS5003;40450;55.848;-3.572;2023-05-10T13:42:40;1;1;
54553;PMS5003;40450;55.848;-3.572;2023-05-10T13:45:10;2;2;
54553;PMS5003;40450;55.848;-3.572;2023-05-10T13:47:40;1;1;
54553;PMS5003;40450;55.848;-3.572;2023-05-10T13:50:11;0;0;
54553;PMS5003;40450;55.848;-3.572;2023-05-10T13:52:41;2;2;
54553;PMS5003;40450;55.848;-3.572;2023-05-10T13:55:12;2;2;
54553;PMS5003;40450;55.848;-3.572;2023-05-10T13:57:42;0;0;
54553;PMS5003;40450;55.848;-3.572;2023-05-10T14:00:12;2;2;
54553;PMS5003;40450;55.848;-3.572;2023-05-10T14:02:42;1;0;
54553;PMS5003;40450;55.848;-3.572;2023-05-10T14:05:13;1;1;
54553;PMS5003;40450;55.848;-3.572;2023-05-10T14:07:43;0;0;
54553;PMS5003;40450;55.848;-3.572;2023-05-10T14:10:13;0;0;
54553;PMS5003;40450;55.848;-3.572;2023-05-10T14:12:44;0;0;
54553;PMS5003;40450;55.848;-3.572;2023-05-10T14:15:14;0;0;
54553;PMS5003;40450;55.848;-3.572;2023-05-10T14:17:44;0;0;
54553;PMS5003;40450;55.848;-3.572;2023-05-10T14:20:15;0;0;
54553;PMS5003;40450;55.848;-3.572;2023-05-10T14:22:45;0;0;
54553;PMS5003;40450;55.848;-3.572;2023-05-10T14:25:20;0;0;
54553;PMS5003;40450;55.848;-3.572;2023-05-10T14:27:46;0;0;
54553;PMS5003;40450;55.848;-3.572;2023-05-10T14:30:16;0;0;
54553;PMS5003;40450;55.848;-3.572;2023-05-10T14:32:46;0;0;
54553;PMS5003;40450;55.848;-3.572;2023-05-10T14:35:16;0;0;
54553;PMS5003;40450;55.848;-3.572;2023-05-10T14:37:47;0;0;
54553;PMS5003;40450;55.848;-3.572;2023-05-10T14:40:17;0;0;
54553;PMS5003;40450;55.848;-3.572;2023-05-10T14:42:47;0;0;
54553;PMS5003;40450;55.848;-3.572;2023-05-10T14:45:18;0;0;
54553;PMS5003;40450;55.848;-3.572;2023-05-10T14:47:48;0;0;
54553;PMS5003;40450;55.848;-3.572;2023-05-10T14:50:18;0;0;
54553;PMS5003;40450;55.848;-3.572;2023-05-10T14:52:49;0;0;
54553;PMS5003;40450;55.848;-3.572;2023-05-10T14:55:19;0;0;
54553;PMS5003;40450;55.848;-3.572;2023-05-10T14:57:49;0;0;
54553;PMS5003;40450;55.848;-3.572;2023-05-10T15:00:20;0;0;
54553;PMS5003;40450;55.848;-3.572;2023-05-10T15:02:50;0;0;
54553;PMS5003;40450;55.848;-3.572;2023-05-10T15:05:20;1;0;
54553;PMS5003;40450;55.848;-3.572;2023-05-10T15:07:50;0;0;
54553;PMS5003;40450;55.848;-3.572;2023-05-10T15:10:21;0;0;
54553;PMS5003;40450;55.848;-3.572;2023-05-10T15:12:51;0;0;
54553;PMS5003;40450;55.848;-3.572;2023-05-10T15:15:21;0;0;
54553;PMS5003;40450;55.848;-3.572;2023-05-10T15:17:51;0;0;
54553;PMS5003;40450;55.848;-3.572;2023-05-10T15:20:22;0;0;
54553;PMS5003;40450;55.848;-3.572;2023-05-10T15:22:52;0;0;
54553;PMS5003;40450;55.848;-3.572;2023-05-10T15:25:22;0;0;
54553;PMS5003;40450;55.848;-3.572;2023-05-10T15:27:53;0;0;
54553;PMS5003;40450;55.848;-3.572;2023-05-10T15:30:23;0;0;
54553;PMS5003;40450;55.848;-3.572;2023-05-10T15:32:53;0;0;
54553;PMS5003;40450;55.848;-3.572;2023-05-10T15:35:24;1;0;
54553;PMS5003;40450;55.848;-3.572;2023-05-10T15:37:54;1;1;
54553;PMS5003;40450;55.848;-3.572;2023-05-10T15:40:24;0;0;
54553;PMS5003;40450;55.848;-3.572;2023-05-10T15:42:54;0;0;
54553;PMS5003;40450;55.848;-3.572;2023-05-10T15:45:25;0;0;
54553;PMS5003;40450;55.848;-3.572;2023-05-10T15:47:55;1;1;
54553;PMS5003;40450;55.848;-3.572;2023-05-10T15:50:25;0;0;
54553;PMS5003;40450;55.848;-3.572;2023-05-10T15:52:56;1;1;
54553;PMS5003;40450;55.848;-3.572;2023-05-10T15:55:26;0;0;
54553;PMS5003;40450;55.848;-3.572;2023-05-10T15:57:57;0;0;
54553;PMS5003;40450;55.848;-3.572;2023-05-10T16:00:27;0;0;
54553;PMS5003;40450;55.848;-3.572;2023-05-10T16:02:57;0;0;
54553;PMS5003;40450;55.848;-3.572;2023-05-10T16:05:28;1;1;
54553;PMS5003;40450;55.848;-3.572;2023-05-10T16:07:58;2;2;
54553;PMS5003;40450;55.848;-3.572;2023-05-10T16:10:30;0;0;
54553;PMS5003;40450;55.848;-3.572;2023-05-10T16:12:58;1;1;
54553;PMS5003;40450;55.848;-3.572;2023-05-10T16:15:29;0;0;
54553;PMS5003;40450;55.848;-3.572;2023-05-10T16:17:59;2;1;
54553;PMS5003;40450;55.848;-3.572;2023-05-10T16:20:38;0;0;
54553;PMS5003;40450;55.848;-3.572;2023-05-10T16:23:00;0;0;
54553;PMS5003;40450;55.848;-3.572;2023-05-10T16:25:35;1;1;
54553;PMS5003;40450;55.848;-3.572;2023-05-10T16:28:00;0;0;
54553;PMS5003;40450;55.848;-3.572;2023-05-10T16:30:31;1;1;
54553;PMS5003;40450;55.848;-3.572;2023-05-10T16:33:02;0;0;
54553;PMS5003;40450;55.848;-3.572;2023-05-10T16:35:31;2;0;
54553;PMS5003;40450;55.848;-3.572;2023-05-10T16:38:02;3;1;
54553;PMS5003;40450;55.848;-3.572;2023-05-10T16:40:32;0;0;
54553;PMS5003;40450;55.848;-3.572;2023-05-10T16:43:02;0;0;
54553;PMS5003;40450;55.848;-3.572;2023-05-10T16:45:33;0;0;
54553;PMS5003;40450;55.848;-3.572;2023-05-10T16:48:03;0;0;
54553;PMS5003;40450;55.848;-3.572;2023-05-10T16:50:33;0;0;
54553;PMS5003;40450;55.848;-3.572;2023-05-10T16:53:04;0;0;
54553;PMS5003;40450;55.848;-3.572;2023-05-10T16:55:34;0;0;
54553;PMS5003;40450;55.848;-3.572;2023-05-10T16:58:04;1;1;
54553;PMS5003;40450;55.848;-3.572;2023-05-10T17:00:35;1;1;
54553;PMS5003;40450;55.848;-3.572;2023-05-10T17:03:05;0;0;
54553;PMS5003;40450;55.848;-3.572;2023-05-10T17:05:35;0;0;
54553;PMS5003;40450;55.848;-3.572;2023-05-10T17:08:06;0;0;
54553;PMS5003;40450;55.848;-3.572;2023-05-10T17:10:38;1;1;
54553;PMS5003;40450;55.848;-3.572;2023-05-10T17:13:06;0;0;